createdAt,value
2023-02-14T00:01:12.951Z,1.50
2023-02-14T00:03:40.283Z,1.50
2023-02-14T00:06:13.806Z,1.40
2023-02-14T00:08:44.378Z,1.40
2023-02-14T00:11:12.882Z,1.30
2023-02-14T00:13:40.019Z,1.40
2023-02-14T00:16:07.296Z,1.30
2023-02-14T00:18:52.648Z,1.30
2023-02-14T00:21:19.683Z,1.20
2023-02-14T00:23:46.753Z,1.20
2023-02-14T00:26:15.382Z,1.20
2023-02-14T00:28:42.897Z,1.10
2023-02-14T00:31:10.239Z,1.10
2023-02-14T00:33:37.844Z,1.10
2023-02-14T00:36:07.297Z,1.00
2023-02-14T00:38:35.785Z,0.90
2023-02-14T00:41:03.469Z,0.80
2023-02-14T00:43:30.782Z,0.80
2023-02-14T00:45:57.938Z,0.80
2023-02-14T00:48:25.216Z,0.80
2023-02-14T00:50:52.361Z,0.80
2023-02-14T00:53:19.413Z,0.80
2023-02-14T00:55:47.088Z,0.80
2023-02-14T00:58:14.205Z,0.80
2023-02-14T01:00:41.267Z,0.80
2023-02-14T01:03:08.322Z,0.80
2023-02-14T01:05:35.330Z,0.70
2023-02-14T01:08:03.112Z,0.70
2023-02-14T01:10:30.130Z,0.60
2023-02-14T01:12:57.214Z,0.60
2023-02-14T01:15:24.203Z,0.60
2023-02-14T01:17:51.230Z,0.50
2023-02-14T01:20:18.436Z,0.50
2023-02-14T01:22:45.538Z,0.50
2023-02-14T01:25:12.600Z,0.60
2023-02-14T01:27:39.623Z,0.60
2023-02-14T01:30:08.008Z,0.60
2023-02-14T01:32:35.569Z,0.60
2023-02-14T01:35:02.658Z,0.70
2023-02-14T01:37:30.687Z,0.70
2023-02-14T01:40:02.541Z,0.70
2023-02-14T01:42:29.639Z,0.70
2023-02-14T01:45:21.668Z,0.70
2023-02-14T01:47:54.688Z,0.70
2023-02-14T01:50:32.918Z,0.60
2023-02-14T01:53:05.888Z,0.60
2023-02-14T01:55:37.705Z,0.60
2023-02-14T01:58:37.720Z,0.60
2023-02-14T02:01:06.055Z,0.70
2023-02-14T02:03:54.944Z,0.70
2023-02-14T02:06:40.615Z,0.70
2023-02-14T02:09:40.868Z,0.70
2023-02-14T02:12:07.936Z,0.70
2023-02-14T02:14:35.420Z,0.70
2023-02-14T02:17:20.572Z,0.60
2023-02-14T02:20:33.997Z,0.60
2023-02-14T02:23:27.934Z,0.50
2023-02-14T02:26:22.347Z,0.50
2023-02-14T02:29:26.267Z,0.50
2023-02-14T02:32:26.792Z,0.50
2023-02-14T02:35:31.921Z,0.40
2023-02-14T02:38:19.599Z,0.40
2023-02-14T02:41:38.625Z,0.40
2023-02-14T02:44:43.135Z,0.30
2023-02-14T02:47:34.687Z,0.30
2023-02-14T02:50:43.734Z,0.30
2023-02-14T02:53:41.281Z,0.30
2023-02-14T02:56:44.106Z,0.30
2023-02-14T02:59:23.855Z,0.20
2023-02-14T03:02:17.711Z,0.20
2023-02-14T03:04:54.523Z,0.20
2023-02-14T03:07:36.424Z,0.20
2023-02-14T03:10:06.676Z,0.20
2023-02-14T03:12:33.645Z,0.20
2023-02-14T03:15:03.442Z,0.30
2023-02-14T03:17:37.659Z,0.40
2023-02-14T03:20:37.894Z,0.40
2023-02-14T03:23:21.980Z,0.40
2023-02-14T03:26:01.170Z,0.40
2023-02-14T03:28:46.365Z,0.40
2023-02-14T03:31:56.132Z,0.40
2023-02-14T03:34:35.498Z,0.30
2023-02-14T03:37:22.759Z,0.40
2023-02-14T03:40:02.315Z,0.50
2023-02-14T03:42:38.019Z,0.60
2023-02-14T03:45:09.675Z,0.70
2023-02-14T03:47:38.303Z,0.70
2023-02-14T03:50:17.393Z,0.80
2023-02-14T03:52:46.829Z,0.80
2023-02-14T03:55:20.285Z,0.70
2023-02-14T03:57:56.027Z,0.70
2023-02-14T04:00:23.438Z,0.70
2023-02-14T04:02:56.377Z,0.70
2023-02-14T04:05:27.619Z,0.70
2023-02-14T04:07:58.102Z,0.70
2023-02-14T04:10:26.483Z,0.70
2023-02-14T04:12:53.562Z,0.80
2023-02-14T04:15:20.605Z,0.80
2023-02-14T04:18:06.030Z,0.90
2023-02-14T04:20:34.145Z,0.90
2023-02-14T04:23:03.327Z,0.90
2023-02-14T04:25:31.096Z,0.90
2023-02-14T04:27:58.075Z,0.90
2023-02-14T04:30:25.331Z,0.80
2023-02-14T04:32:52.431Z,0.80
2023-02-14T04:35:19.370Z,0.70
2023-02-14T04:37:46.459Z,0.70
2023-02-14T04:40:17.554Z,0.70
2023-02-14T04:42:46.082Z,0.60
2023-02-14T04:45:13.321Z,0.60
2023-02-14T04:47:40.316Z,0.60
2023-02-14T04:50:08.161Z,0.60
2023-02-14T04:52:35.158Z,0.60
2023-02-14T04:55:04.584Z,0.50
2023-02-14T04:57:31.742Z,0.50
2023-02-14T04:59:58.822Z,0.40
2023-02-14T05:02:26.179Z,0.30
2023-02-14T05:04:53.207Z,0.30
2023-02-14T05:07:20.213Z,0.30
2023-02-14T05:09:47.272Z,0.30
2023-02-14T05:12:15.955Z,0.30
2023-02-14T05:14:43.327Z,0.30
2023-02-14T05:17:10.308Z,0.30
2023-02-14T05:19:37.227Z,0.40
2023-02-14T05:22:04.473Z,0.40
2023-02-14T05:24:31.454Z,0.40
2023-02-14T05:26:58.451Z,0.40
2023-02-14T05:29:25.522Z,0.40
2023-02-14T05:31:52.601Z,0.40
2023-02-14T05:34:21.342Z,0.30
2023-02-14T05:36:48.848Z,0.20
2023-02-14T05:39:15.872Z,0.10
2023-02-14T05:41:42.997Z,0.10
2023-02-14T05:44:10.137Z,0.10
2023-02-14T05:46:37.273Z,0.00
2023-02-14T05:49:04.289Z,0.00
2023-02-14T05:51:31.380Z,0.00
2023-02-14T05:54:00.129Z,-0.10
2023-02-14T05:56:27.645Z,-0.10
2023-02-14T05:58:54.713Z,-0.10
2023-02-14T06:01:21.769Z,-0.20
2023-02-14T06:03:48.769Z,-0.20
2023-02-14T06:06:15.849Z,-0.20
2023-02-14T06:08:42.864Z,-0.20
2023-02-14T06:11:09.917Z,-0.10
2023-02-14T06:13:36.859Z,-0.10
2023-02-14T06:16:05.097Z,-0.10
2023-02-14T06:18:32.071Z,-0.10
2023-02-14T06:20:59.338Z,-0.10
2023-02-14T06:23:29.405Z,0.00
2023-02-14T06:25:56.431Z,0.00
2023-02-14T06:28:23.432Z,0.00
2023-02-14T06:30:50.592Z,0.00
2023-02-14T06:33:17.716Z,0.10
2023-02-14T06:35:44.762Z,0.10
2023-02-14T06:38:11.765Z,0.10
2023-02-14T06:40:38.799Z,0.10
2023-02-14T06:43:06.199Z,0.10
2023-02-14T06:45:33.292Z,0.10
2023-02-14T06:48:00.436Z,0.10
2023-02-14T06:50:27.554Z,0.10
2023-02-14T06:52:54.664Z,0.10
2023-02-14T06:55:21.612Z,0.20
2023-02-14T06:57:48.609Z,0.20
2023-02-14T07:00:16.095Z,0.20
2023-02-14T07:02:45.250Z,0.20
2023-02-14T07:05:12.273Z,0.20
2023-02-14T07:07:39.217Z,0.10
2023-02-14T07:10:07.146Z,0.10
2023-02-14T07:12:34.889Z,0.10
2023-02-14T07:15:02.089Z,0.10
2023-02-14T07:17:29.103Z,0.20
2023-02-14T07:19:56.322Z,0.20
2023-02-14T07:22:23.304Z,0.30
2023-02-14T07:24:50.354Z,0.40
2023-02-14T07:27:17.470Z,0.50
2023-02-14T07:29:44.513Z,0.60
2023-02-14T07:32:11.564Z,0.70
2023-02-14T07:34:38.556Z,0.70
2023-02-14T07:37:05.528Z,0.80
2023-02-14T07:39:32.503Z,0.80
2023-02-14T07:41:59.481Z,0.90
2023-02-14T07:44:27.128Z,0.90
2023-02-14T07:46:54.095Z,1.00
2023-02-14T07:49:21.249Z,1.10
2023-02-14T07:51:48.607Z,1.30
2023-02-14T07:54:15.601Z,1.30
2023-02-14T07:56:42.640Z,1.50
2023-02-14T07:59:09.596Z,1.60
2023-02-14T08:01:36.668Z,1.70
2023-02-14T08:04:03.844Z,1.80
2023-02-14T08:06:30.806Z,1.80
2023-02-14T08:08:57.781Z,1.90
2023-02-14T08:11:43.006Z,2.00
2023-02-14T08:14:10.124Z,2.20
2023-02-14T08:16:38.325Z,2.50
2023-02-14T08:19:05.547Z,2.80
2023-02-14T08:21:32.725Z,3.30
2023-02-14T08:23:59.768Z,4.00
2023-02-14T08:26:26.804Z,4.90
2023-02-14T08:28:54.354Z,5.80
2023-02-14T08:31:36.859Z,6.70
2023-02-14T08:34:07.584Z,7.50
2023-02-14T08:36:35.369Z,8.10
2023-02-14T08:39:04.864Z,8.50
2023-02-14T08:41:32.707Z,8.90
2023-02-14T08:43:59.920Z,9.30
2023-02-14T08:46:27.689Z,9.60
2023-02-14T08:48:56.060Z,10.00
2023-02-14T08:51:23.647Z,10.40
2023-02-14T08:53:53.117Z,10.80
2023-02-14T08:56:22.639Z,11.10
2023-02-14T08:58:53.479Z,11.10
2023-02-14T09:01:20.835Z,11.20
2023-02-14T09:03:47.963Z,11.40
2023-02-14T09:06:17.547Z,11.70
2023-02-14T09:08:45.463Z,12.00
2023-02-14T09:11:24.676Z,12.00
2023-02-14T09:13:53.596Z,12.00
2023-02-14T09:16:22.572Z,12.10
2023-02-14T09:18:51.685Z,12.30
2023-02-14T09:21:27.898Z,12.30
2023-02-14T09:23:55.338Z,12.30
2023-02-14T09:26:22.670Z,12.30
2023-02-14T09:28:49.802Z,12.40
2023-02-14T09:31:22.881Z,12.50
2023-02-14T09:33:51.972Z,12.60
2023-02-14T09:36:19.099Z,12.70
2023-02-14T09:38:46.520Z,12.70
2023-02-14T09:42:03.197Z,12.70
2023-02-14T09:44:41.957Z,12.60
2023-02-14T09:47:27.010Z,12.30
2023-02-14T09:49:55.898Z,12.00
2023-02-14T09:52:28.626Z,11.80
2023-02-14T09:55:01.506Z,11.70
2023-02-14T09:58:15.991Z,11.70
2023-02-14T10:01:05.446Z,11.60
2023-02-14T10:04:18.825Z,11.60
2023-02-14T10:06:48.147Z,11.50
2023-02-14T10:09:47.413Z,11.30
2023-02-14T10:12:28.977Z,11.20
2023-02-14T10:15:01.004Z,11.10
2023-02-14T10:17:41.256Z,11.10
2023-02-14T10:20:39.270Z,11.00
2023-02-14T10:23:32.914Z,11.00
2023-02-14T10:26:04.398Z,10.90
2023-02-14T10:28:34.190Z,10.80
2023-02-14T10:31:55.859Z,10.80
2023-02-14T10:34:36.181Z,10.70
2023-02-14T10:37:15.488Z,10.70
2023-02-14T10:40:07.039Z,10.80
2023-02-14T10:43:08.179Z,11.10
2023-02-14T10:45:46.976Z,11.20
2023-02-14T10:48:34.127Z,11.40
2023-02-14T10:51:36.243Z,11.40
2023-02-14T10:54:22.868Z,11.70
2023-02-14T10:57:00.714Z,11.80
2023-02-14T10:59:46.943Z,11.80
2023-02-14T11:02:17.474Z,11.90
2023-02-14T11:04:47.425Z,11.90
2023-02-14T11:07:18.770Z,11.80
2023-02-14T11:09:46.074Z,11.90
2023-02-14T11:12:32.620Z,12.00
2023-02-14T11:15:13.944Z,12.20
2023-02-14T11:17:42.468Z,12.50
2023-02-14T11:20:18.666Z,12.60
2023-02-14T11:22:46.453Z,12.50
2023-02-14T11:25:28.889Z,12.40
2023-02-14T11:28:10.419Z,12.30
2023-02-14T11:30:42.844Z,12.40
2023-02-14T11:33:30.878Z,12.50
2023-02-14T11:35:58.538Z,12.80
2023-02-14T11:38:38.068Z,13.10
2023-02-14T11:41:12.230Z,13.20
2023-02-14T11:43:44.606Z,13.50
2023-02-14T11:46:20.888Z,13.80
2023-02-14T11:49:07.294Z,14.00
2023-02-14T11:51:40.316Z,14.10
2023-02-14T11:54:28.847Z,14.00
2023-02-14T11:57:11.910Z,13.90
2023-02-14T11:59:38.804Z,14.10
2023-02-14T12:02:24.670Z,14.20
2023-02-14T12:05:07.472Z,14.30
2023-02-14T12:07:38.294Z,14.30
2023-02-14T12:10:16.361Z,14.50
2023-02-14T12:13:22.031Z,14.50
2023-02-14T12:15:58.405Z,14.30
2023-02-14T12:19:07.546Z,13.90
2023-02-14T12:22:04.818Z,13.80
2023-02-14T12:24:48.886Z,13.70
2023-02-14T12:27:52.156Z,13.60
2023-02-14T12:30:23.339Z,13.80
2023-02-14T12:32:53.615Z,14.20
2023-02-14T12:36:07.838Z,14.50
2023-02-14T12:39:05.478Z,14.30
2023-02-14T12:42:04.512Z,14.30
2023-02-14T12:44:59.331Z,14.50
2023-02-14T12:47:56.912Z,14.60
2023-02-14T12:50:51.572Z,14.60
2023-02-14T12:53:42.569Z,14.90
2023-02-14T12:56:46.019Z,15.20
2023-02-14T12:59:22.863Z,15.30
2023-02-14T13:02:05.417Z,15.10
2023-02-14T13:04:54.295Z,15.30
2023-02-14T13:07:56.124Z,15.50
2023-02-14T13:10:49.859Z,15.40
2023-02-14T13:14:04.672Z,15.30
2023-02-14T13:16:55.445Z,15.40
2023-02-14T13:19:50.239Z,15.50
2023-02-14T13:22:23.082Z,15.50
2023-02-14T13:24:55.874Z,15.50
2023-02-14T13:27:32.466Z,15.50
2023-02-14T13:30:31.041Z,15.40
2023-02-14T13:33:28.346Z,15.20
2023-02-14T13:36:00.969Z,15.20
2023-02-14T13:38:31.821Z,15.30
2023-02-14T13:41:01.254Z,15.10
2023-02-14T13:43:50.172Z,14.90
2023-02-14T13:46:20.548Z,14.60
2023-02-14T13:49:37.663Z,14.40
2023-02-14T13:52:06.542Z,14.30
2023-02-14T13:54:41.046Z,14.20
2023-02-14T13:57:36.559Z,14.20
2023-02-14T14:00:22.435Z,14.30
2023-02-14T14:02:54.367Z,14.30
2023-02-14T14:05:49.865Z,14.30
2023-02-14T14:08:23.418Z,14.20
2023-02-14T14:10:57.177Z,14.00
2023-02-14T14:13:42.440Z,13.90
2023-02-14T14:16:27.421Z,13.70
2023-02-14T14:19:21.137Z,13.50
2023-02-14T14:22:10.358Z,13.50
2023-02-14T14:24:51.795Z,13.50
2023-02-14T14:27:24.957Z,13.50
2023-02-14T14:30:00.524Z,13.50
2023-02-14T14:32:38.578Z,13.60
2023-02-14T14:35:23.879Z,13.60
2023-02-14T14:37:58.447Z,13.40
2023-02-14T14:40:34.929Z,13.40
2023-02-14T14:43:24.485Z,13.40
2023-02-14T14:45:53.332Z,13.30
2023-02-14T14:48:40.129Z,13.30
2023-02-14T14:51:09.952Z,13.30
2023-02-14T14:53:56.568Z,13.20
2023-02-14T14:56:33.745Z,13.10
2023-02-14T14:59:28.692Z,13.10
2023-02-14T15:01:56.499Z,13.00
2023-02-14T15:04:33.731Z,12.90
2023-02-14T15:07:41.990Z,12.90
2023-02-14T15:10:28.349Z,12.90
2023-02-14T15:13:17.490Z,12.90
2023-02-14T15:15:51.442Z,12.80
2023-02-14T15:18:20.438Z,12.80
2023-02-14T15:20:52.181Z,12.80
2023-02-14T15:23:23.132Z,12.80
2023-02-14T15:25:50.755Z,12.80
2023-02-14T15:28:34.184Z,12.80
2023-02-14T15:31:07.799Z,12.70
2023-02-14T15:33:36.246Z,12.70
2023-02-14T15:36:08.716Z,12.70
2023-02-14T15:38:40.611Z,12.60
2023-02-14T15:41:08.310Z,12.60
2023-02-14T15:43:37.886Z,12.50
2023-02-14T15:46:41.902Z,12.40
2023-02-14T15:49:14.109Z,12.40
2023-02-14T15:51:42.387Z,12.40
2023-02-14T15:54:23.717Z,12.30
2023-02-14T15:56:53.025Z,12.30
2023-02-14T15:59:29.658Z,12.20
2023-02-14T16:02:32.112Z,12.10
2023-02-14T16:05:21.846Z,12.00
2023-02-14T16:08:30.945Z,11.90
2023-02-14T16:11:13.659Z,11.90
2023-02-14T16:13:47.320Z,11.80
2023-02-14T16:16:15.626Z,11.80
2023-02-14T16:18:49.529Z,11.70
2023-02-14T16:21:25.816Z,11.60
2023-02-14T16:24:07.861Z,11.50
2023-02-14T16:26:40.523Z,11.40
2023-02-14T16:29:11.269Z,11.30
2023-02-14T16:32:15.118Z,11.20
2023-02-14T16:34:41.902Z,11.10
2023-02-14T16:37:23.171Z,10.90
2023-02-14T16:39:57.723Z,10.70
2023-02-14T16:42:25.029Z,10.50
2023-02-14T16:44:53.426Z,10.30
2023-02-14T16:47:21.603Z,10.10
2023-02-14T16:49:50.614Z,10.00
2023-02-14T16:52:23.434Z,9.80
2023-02-14T16:54:50.693Z,9.70
2023-02-14T16:57:30.889Z,9.50
2023-02-14T16:59:57.912Z,9.30
2023-02-14T17:02:28.437Z,9.20
2023-02-14T17:04:55.658Z,9.10
2023-02-14T17:07:22.885Z,8.90
2023-02-14T17:09:58.399Z,8.80
2023-02-14T17:12:31.098Z,8.70
2023-02-14T17:15:06.816Z,8.70
2023-02-14T17:17:36.248Z,8.60
2023-02-14T17:20:05.892Z,8.60
2023-02-14T17:22:34.257Z,8.50
2023-02-14T17:25:01.212Z,8.40
2023-02-14T17:27:28.213Z,8.20
2023-02-14T17:29:55.212Z,8.10
2023-02-14T17:32:22.352Z,8.00
2023-02-14T17:34:49.475Z,7.90
2023-02-14T17:37:18.893Z,7.80
2023-02-14T17:39:46.236Z,7.70
2023-02-14T17:42:13.284Z,7.60
2023-02-14T17:44:40.568Z,7.40
2023-02-14T17:47:07.684Z,7.40
2023-02-14T17:49:34.636Z,7.20
2023-02-14T17:52:01.752Z,7.10
2023-02-14T17:54:28.695Z,7.00
2023-02-14T17:56:55.773Z,6.90
2023-02-14T17:59:22.785Z,6.70
2023-02-14T18:01:49.781Z,6.60
2023-02-14T18:04:16.799Z,6.40
2023-02-14T18:06:43.828Z,6.40
2023-02-14T18:09:10.905Z,6.40
2023-02-14T18:11:40.241Z,6.30
2023-02-14T18:14:07.268Z,6.20
2023-02-14T18:16:37.745Z,6.20
2023-02-14T18:19:06.866Z,6.10
2023-02-14T18:21:36.078Z,5.90
2023-02-14T18:24:04.238Z,5.80
2023-02-14T18:26:31.511Z,5.60
2023-02-14T18:28:58.704Z,5.50
2023-02-14T18:31:26.719Z,5.50
2023-02-14T18:33:53.951Z,5.40
2023-02-14T18:36:25.671Z,5.40
2023-02-14T18:38:54.775Z,5.30
2023-02-14T18:41:22.659Z,5.30
2023-02-14T18:43:50.216Z,5.20
2023-02-14T18:46:27.408Z,5.20
2023-02-14T18:48:56.205Z,5.10
2023-02-14T18:51:27.458Z,5.10
2023-02-14T18:53:56.784Z,5.00
2023-02-14T18:56:33.631Z,4.90
2023-02-14T18:59:07.746Z,4.80
2023-02-14T19:01:42.849Z,4.80
2023-02-14T19:04:12.296Z,4.90
2023-02-14T19:06:41.861Z,4.90
2023-02-14T19:09:12.547Z,4.80
2023-02-14T19:11:39.907Z,4.80
2023-02-14T19:14:10.180Z,4.80
2023-02-14T19:16:43.754Z,4.70
2023-02-14T19:19:11.291Z,4.70
2023-02-14T19:21:38.389Z,4.60
2023-02-14T19:24:07.168Z,4.60
2023-02-14T19:26:40.735Z,4.60
2023-02-14T19:29:15.533Z,4.50
2023-02-14T19:31:49.475Z,4.40
2023-02-14T19:34:20.231Z,4.20
2023-02-14T19:36:48.283Z,4.10
2023-02-14T19:39:15.854Z,4.00
2023-02-14T19:41:42.884Z,3.90
2023-02-14T19:44:13.879Z,3.90
2023-02-14T19:46:42.760Z,3.80
2023-02-14T19:49:15.267Z,3.80
2023-02-14T19:51:42.543Z,3.80
2023-02-14T19:54:10.377Z,3.80
2023-02-14T19:56:42.191Z,3.70
2023-02-14T19:59:20.528Z,3.70
2023-02-14T20:01:54.752Z,3.70
2023-02-14T20:04:25.670Z,3.70
2023-02-14T20:06:53.203Z,3.60
2023-02-14T20:09:22.469Z,3.60
2023-02-14T20:11:58.195Z,3.60
2023-02-14T20:14:47.110Z,3.60
2023-02-14T20:17:19.493Z,3.50
2023-02-14T20:19:49.508Z,3.40
2023-02-14T20:22:17.008Z,3.40
2023-02-14T20:24:44.357Z,3.40
2023-02-14T20:27:12.161Z,3.30
2023-02-14T20:29:43.377Z,3.30
2023-02-14T20:32:12.626Z,3.30
2023-02-14T20:34:40.126Z,3.30
2023-02-14T20:37:07.153Z,3.30
2023-02-14T20:39:35.906Z,3.30
2023-02-14T20:42:04.059Z,3.30
2023-02-14T20:44:31.620Z,3.30
2023-02-14T20:46:58.824Z,3.30
2023-02-14T20:49:28.718Z,3.20
2023-02-14T20:51:56.140Z,3.10
2023-02-14T20:54:34.428Z,3.00
2023-02-14T20:57:01.379Z,3.00
2023-02-14T20:59:28.964Z,3.00
2023-02-14T21:01:58.608Z,2.90
2023-02-14T21:04:25.661Z,2.90
2023-02-14T21:06:52.643Z,2.90
2023-02-14T21:09:20.783Z,2.80
2023-02-14T21:11:47.990Z,2.80
2023-02-14T21:14:17.305Z,2.70
2023-02-14T21:16:44.316Z,2.70
2023-02-14T21:19:11.292Z,2.60
2023-02-14T21:21:38.825Z,2.60
2023-02-14T21:24:14.544Z,2.60
2023-02-14T21:26:42.610Z,2.50
2023-02-14T21:29:10.712Z,2.40
2023-02-14T21:31:39.523Z,2.40
2023-02-14T21:34:06.573Z,2.40
2023-02-14T21:36:37.989Z,2.30
2023-02-14T21:39:06.793Z,2.30
2023-02-14T21:41:35.832Z,2.20
2023-02-14T21:44:04.275Z,2.20
2023-02-14T21:46:35.897Z,2.20
2023-02-14T21:49:23.446Z,2.10
2023-02-14T21:51:50.579Z,2.10
2023-02-14T21:54:18.020Z,2.10
2023-02-14T21:56:45.255Z,2.10
2023-02-14T21:59:12.876Z,2.00
2023-02-14T22:01:42.293Z,2.00
2023-02-14T22:04:12.242Z,1.90
2023-02-14T22:06:41.680Z,1.80
2023-02-14T22:09:11.066Z,1.80
2023-02-14T22:11:38.254Z,1.80
2023-02-14T22:14:05.560Z,1.70
2023-02-14T22:16:32.604Z,1.70
2023-02-14T22:18:59.585Z,1.70
2023-02-14T22:21:27.297Z,1.80
2023-02-14T22:23:55.369Z,1.70
2023-02-14T22:26:35.430Z,1.70
2023-02-14T22:29:03.657Z,1.70
2023-02-14T22:31:36.259Z,1.70
2023-02-14T22:34:06.037Z,1.70
2023-02-14T22:36:33.557Z,1.80
2023-02-14T22:39:00.820Z,1.70
2023-02-14T22:41:28.468Z,1.70
2023-02-14T22:43:55.699Z,1.70
2023-02-14T22:46:28.636Z,1.60
2023-02-14T22:48:57.610Z,1.60
2023-02-14T22:51:32.113Z,1.60
2023-02-14T22:54:02.485Z,1.50
2023-02-14T22:56:39.698Z,1.40
2023-02-14T22:59:17.004Z,1.40
2023-02-14T23:01:45.789Z,1.40
2023-02-14T23:04:15.952Z,1.40
2023-02-14T23:06:43.823Z,1.40
2023-02-14T23:09:12.908Z,1.30
2023-02-14T23:11:42.377Z,1.20
2023-02-14T23:14:31.757Z,1.20
2023-02-14T23:17:17.333Z,1.20
2023-02-14T23:20:03.887Z,1.20
2023-02-14T23:22:40.668Z,1.20
2023-02-14T23:25:11.199Z,1.20
2023-02-14T23:27:43.061Z,1.20
2023-02-14T23:30:14.706Z,1.10
2023-02-14T23:32:42.054Z,1.10
2023-02-14T23:35:10.142Z,1.10
2023-02-14T23:37:37.383Z,1.10
2023-02-14T23:40:05.269Z,1.10
2023-02-14T23:42:32.289Z,1.00
2023-02-14T23:45:19.190Z,1.00
2023-02-14T23:47:46.176Z,0.90
2023-02-14T23:50:13.123Z,0.90
2023-02-14T23:52:41.753Z,0.90
2023-02-14T23:55:09.541Z,0.90
2023-02-14T23:57:37.373Z,1.00
